Kezdőlap
METAR-TAF:

METAR-TAF

Repülőterek :

Agri-Science Center

Chillicothe, Missouri, Amerikai Egyesült Államok

földrajzi szélesség: 39-49N, földrajzi hosszúság: 093-35W, magasság: 234 m

Jelenlegi meteorológiai megfigyelések

A jelentés 12 perccel ezelõtt készült, 05:52 UTC
Észak-északnyugati szél 14 kt széllökések: 25 kt
Hőmérséklet 1°C
Páratartalom 86%
Légköri nyomás 1018 hPa

METAR: KCDJ 180552Z AUTO 33014G25KT 01/M01 A3006 RMK AO1 PK WND 31027/0520 SLP187 T00111011 10106 20011 401220011 51037

Idő: 00:04 (06:04 UTC)


TAF: hiányzik

Meteorológiai megfigyelések és előrejelzések több, mint 4000 repülőtéren (METAR és TAF jelentéseket).

A térképen piros és sárga pontok jelzik az elérhető meteorológiai állomásokat.

Mozgassa az egeret a pont fölött, hogy megjelenjen az állomás neve.

Azután kattintson az időjárási megfigyelések és előrejelzések megtekintéséhez.

A térkép megváltoztatása: kattintson a fekete keresztel jelölt zöld gombra ráközelítéshez, a vonallal jelölt zöld gombra távolításhoz, vagy a zöld nyilakra a szomszédos térképek eléréséhez.


METAR-TAF: